Time;durP1;ratioP1;P1;durP2;ratioP2;P2;SDS_P1;SDS_P2;PMS_P1;PMS_P2;Temp;Humidity;BMP_temperature;BMP_pressure;BME280_temperature;BME280_humidity;BME280_pressure;Samples;Min_cycle;Max_cycle;Signal;HPM_P1;HPM_P2
2021/10/06 00:02:15;;;;;;;2.90;1.95;;;11.40;99.90;;;12.54;100.00;99838.13;6081884;23;20037;-85
2021/10/06 00:04:41;;;;;;;10.32;2.20;;;11.40;99.90;;;12.56;100.00;99842.13;6081338;23;20014;-83
2021/10/06 00:07:07;;;;;;;4.10;2.15;;;11.50;99.90;;;12.59;100.00;99837.75;6081490;23;20010;-84
2021/10/06 00:09:33;;;;;;;6.57;2.17;;;11.50;99.90;;;12.52;100.00;99841.31;6085623;23;20010;-83
2021/10/06 00:11:59;;;;;;;6.45;2.22;;;11.50;99.90;;;12.65;100.00;99861.38;6095846;23;20014;-84
2021/10/06 00:14:25;;;;;;;9.57;2.08;;;11.50;99.90;;;12.47;100.00;99849.28;6093237;23;20010;-88
2021/10/06 00:16:52;;;;;;;5.63;2.28;;;11.50;99.90;;;12.51;100.00;99858.50;6119254;23;20026;-89
2021/10/06 00:19:19;;;;;;;6.90;2.42;;;11.60;99.90;;;12.56;100.00;99867.34;6092883;23;19998;-80
2021/10/06 00:21:45;;;;;;;5.15;1.98;;;11.60;99.90;;;12.55;100.00;99859.34;6056811;23;20050;-86
2021/10/06 00:24:11;;;;;;;6.28;2.28;;;11.50;99.90;;;12.56;100.00;99856.13;6109863;23;20011;-86
2021/10/06 00:26:37;;;;;;;7.10;1.90;;;11.50;99.90;;;12.48;100.00;99854.50;6082408;23;20021;-86
2021/10/06 00:29:05;;;;;;;8.63;2.10;;;11.40;99.90;;;12.55;100.00;99867.75;6082590;23;20021;-82
2021/10/06 00:31:32;;;;;;;5.25;2.30;;;11.50;99.90;;;12.42;100.00;99863.66;6111185;23;20002;-88
2021/10/06 00:33:57;;;;;;;5.30;1.98;;;11.40;99.90;;;12.28;100.00;99853.16;6084945;23;20006;-88
2021/10/06 00:36:23;;;;;;;7.20;2.60;;;11.40;99.90;;;12.40;99.82;99861.22;6084473;23;20002;-86
2021/10/06 00:38:50;;;;;;;7.10;2.30;;;11.40;99.90;;;12.29;100.00;99859.56;6076902;23;20014;-84
2021/10/06 00:41:16;;;;;;;7.43;2.20;;;11.30;99.90;;;12.34;99.82;99871.19;6100878;23;20068;-87
2021/10/06 00:43:42;;;;;;;3.75;1.95;;;11.40;99.90;;;12.31;100.00;99865.56;6075821;23;20010;-86
2021/10/06 00:46:08;;;;;;;8.13;2.10;;;11.30;99.90;;;12.25;100.00;99859.53;6075933;23;20010;-85
2021/10/06 00:48:34;;;;;;;5.13;1.85;;;11.30;99.90;;;12.15;100.00;99863.03;6100668;23;20014;-86
2021/10/06 00:51:00;;;;;;;6.25;2.10;;;11.20;99.90;;;12.27;100.00;99868.34;6101610;23;20059;-83
2021/10/06 00:53:28;;;;;;;4.57;1.85;;;11.30;99.90;;;12.34;99.21;99875.97;6101078;23;20321;-88
2021/10/06 00:55:55;;;;;;;6.05;2.10;;;11.20;99.90;;;12.24;100.00;99880.31;6076178;23;20002;-84
2021/10/06 00:58:22;;;;;;;4.93;1.55;;;11.10;99.90;;;12.24;99.23;99885.09;6052686;23;20014;-83
2021/10/06 01:00:48;;;;;;;5.82;2.03;;;11.10;99.90;;;12.19;99.61;99880.69;6084578;23;20065;-89
2021/10/06 01:03:20;;;;;;;9.60;2.13;;;11.10;99.90;;;12.01;100.00;99880.50;6083665;23;20015;-88
2021/10/06 01:05:49;;;;;;;8.73;2.63;;;11.10;99.90;;;12.04;100.00;99879.72;6083780;23;20097;-87
2021/10/06 01:08:17;;;;;;;4.88;1.75;;;11.10;99.90;;;12.12;100.00;99887.03;6107089;23;20018;-85
2021/10/06 01:10:44;;;;;;;7.97;1.80;;;11.00;99.90;;;11.98;100.00;99877.69;6081645;23;20006;-89
2021/10/06 01:13:11;;;;;;;5.25;1.80;;;11.00;99.90;;;11.96;100.00;99892.06;6080684;23;20007;-86
2021/10/06 01:15:39;;;;;;;4.38;1.70;;;11.00;99.90;;;11.83;100.00;99882.34;6106191;23;20515;-83
2021/10/06 01:18:05;;;;;;;4.40;1.90;;;10.90;99.90;;;11.81;100.00;99881.13;6105711;23;20085;-84
2021/10/06 01:20:31;;;;;;;5.72;1.70;;;10.90;99.90;;;11.90;100.00;99888.03;6080051;23;20010;-88
2021/10/06 01:22:56;;;;;;;4.00;1.58;;;10.90;99.90;;;11.82;100.00;99893.91;6105731;23;20066;-85
2021/10/06 01:25:22;;;;;;;6.60;1.67;;;10.90;99.90;;;11.89;100.00;99899.59;6078740;23;20380;-86
2021/10/06 01:27:48;;;;;;;4.38;1.60;;;10.80;99.90;;;11.89;100.00;99892.00;6078733;23;20034;-83
2021/10/06 01:30:15;;;;;;;6.05;1.50;;;10.90;99.90;;;11.96;100.00;99902.47;6078280;23;20053;-83
2021/10/06 01:32:45;;;;;;;6.10;1.50;;;10.90;99.90;;;11.88;100.00;99906.38;6104002;23;20009;-85
2021/10/06 01:35:15;;;;;;;7.22;1.60;;;10.90;99.90;;;11.85;100.00;99907.13;6054556;23;20021;-84
2021/10/06 01:37:44;;;;;;;6.90;1.85;;;10.90;99.90;;;11.88;100.00;99907.16;6076099;23;20017;-85
2021/10/06 01:40:18;;;;;;;5.25;1.85;;;10.90;99.90;;;11.93;99.97;99906.03;6076182;23;20016;-87
2021/10/06 01:42:46;;;;;;;7.22;1.85;;;10.90;99.90;;;11.90;99.94;99907.59;6075386;23;20078;-84
2021/10/06 01:45:21;;;;;;;5.10;1.52;;;11.00;99.90;;;12.07;99.20;99917.38;6101083;23;20002;-81
2021/10/06 01:47:48;;;;;;;5.32;1.73;;;11.00;99.90;;;11.97;99.87;99918.06;6099154;23;20014;-84
2021/10/06 01:50:25;;;;;;;4.45;1.73;;;10.90;99.90;;;11.84;100.00;99911.94;6051728;23;20011;-80
2021/10/06 01:52:54;;;;;;;6.30;2.10;;;10.90;99.90;;;11.90;100.00;99916.00;6101049;23;20082;-82
2021/10/06 01:55:31;;;;;;;4.03;1.95;;;10.90;99.90;;;11.99;99.57;99915.69;6075055;23;20081;-85
2021/10/06 01:58:04;;;;;;;8.80;2.42;;;10.80;99.90;;;12.02;99.48;99921.31;6073905;23;20006;-83
2021/10/06 02:00:32;;;;;;;10.00;1.90;;;10.90;99.90;;;12.02;99.19;99921.31;6051403;23;20391;-85
2021/10/06 02:02:58;;;;;;;7.15;2.10;;;10.90;99.90;;;12.08;98.82;99928.16;6027031;23;20018;-87
2021/10/06 02:05:24;;;;;;;6.03;1.50;;;10.90;99.90;;;11.93;99.39;99923.63;6074444;23;20010;-84
2021/10/06 02:07:51;;;;;;;5.60;1.77;;;10.90;99.90;;;11.93;99.64;99914.41;6099344;23;20006;-83
2021/10/06 02:10:21;;;;;;;9.52;2.38;;;11.00;99.90;;;11.99;99.35;99924.88;6073934;23;20007;-82
2021/10/06 02:12:47;;;;;;;4.65;1.92;;;11.00;99.90;;;12.07;99.10;99926.53;6072889;23;20066;-84
2021/10/06 02:15:12;;;;;;;5.70;2.08;;;11.00;99.90;;;12.07;98.58;99925.75;6098214;23;20003;-84
2021/10/06 02:17:38;;;;;;;11.70;2.25;;;11.10;99.90;;;12.03;99.02;99924.91;6098494;23;20017;-86
2021/10/06 02:20:06;;;;;;;6.53;2.08;;;11.00;99.90;;;11.99;99.37;99930.47;6073231;23;20006;-83
2021/10/06 02:22:32;;;;;;;7.47;1.73;;;11.00;99.90;;;11.92;99.65;99924.81;6072902;23;20333;-83
2021/10/06 02:24:58;;;;;;;9.25;2.20;;;10.90;99.90;;;11.91;99.38;99923.19;6073234;23;20090;-84
2021/10/06 02:27:24;;;;;;;9.70;2.08;;;10.90;99.90;;;12.00;98.83;99928.50;6072510;23;20021;-82
2021/10/06 02:29:49;;;;;;;7.53;2.67;;;10.90;99.90;;;11.95;99.16;99924.03;6072560;23;20462;-82
2021/10/06 02:32:15;;;;;;;13.70;2.33;;;10.90;99.90;;;12.00;98.74;99925.69;6073478;23;20297;-85
2021/10/06 02:34:41;;;;;;;10.23;2.40;;;11.00;99.90;;;12.00;98.12;99928.50;6099024;23;20444;-83
2021/10/06 02:37:07;;;;;;;7.90;1.80;;;10.90;99.90;;;11.88;98.94;99926.75;6073209;23;20006;-82
2021/10/06 02:39:33;;;;;;;9.40;2.00;;;10.90;99.90;;;11.88;99.06;99925.97;6074078;23;20021;-82
2021/10/06 02:41:59;;;;;;;7.10;2.40;;;10.90;99.90;;;11.88;98.96;99914.78;6079664;23;20010;-83
2021/10/06 02:44:24;;;;;;;5.72;1.98;;;10.80;99.90;;;11.79;99.31;99917.06;6074730;23;20471;-82
2021/10/06 02:46:50;;;;;;;7.90;2.60;;;10.80;99.90;;;11.73;99.60;99919.41;6073841;23;20010;-84
2021/10/06 02:49:16;;;;;;;7.85;1.70;;;10.80;99.90;;;11.81;99.49;99914.69;6074012;23;20011;-83
2021/10/06 02:51:43;;;;;;;4.90;2.30;;;10.80;99.90;;;11.86;99.25;99920.75;6074822;23;20006;-81
2021/10/06 02:54:09;;;;;;;6.68;1.63;;;10.70;99.90;;;11.83;99.45;99920.72;6073939;23;20006;-84
2021/10/06 02:56:35;;;;;;;9.30;1.88;;;10.70;99.90;;;11.81;98.70;99932.31;6099499;23;20017;-82
2021/10/06 02:59:00;;;;;;;10.88;2.20;;;10.70;99.90;;;11.77;98.87;99925.84;6100194;23;20006;-84
2021/10/06 03:01:26;;;;;;;6.88;1.92;;;10.70;99.90;;;11.79;98.77;99934.66;6073482;23;20066;-83
2021/10/06 03:03:52;;;;;;;10.13;2.00;;;10.70;99.90;;;11.88;98.91;99935.16;6073754;23;20010;-85
2021/10/06 03:06:18;;;;;;;12.30;1.92;;;10.80;99.90;;;11.94;98.99;99930.03;6098805;23;20010;-84
2021/10/06 03:08:44;;;;;;;8.73;1.73;;;10.80;99.90;;;12.03;98.09;99934.13;6072393;23;20010;-83
2021/10/06 03:11:09;;;;;;;10.18;2.63;;;10.80;99.90;;;12.00;97.78;99931.28;6072547;23;20007;-83
2021/10/06 03:13:35;;;;;;;7.25;2.58;;;10.90;99.90;;;12.07;97.71;99931.38;6072763;23;20015;-82
2021/10/06 03:16:01;;;;;;;7.88;1.95;;;10.90;99.90;;;12.09;97.00;99934.56;6097933;23;20006;-80
2021/10/06 03:18:27;;;;;;;9.82;2.22;;;10.90;99.90;;;11.91;97.40;99942.00;6072926;23;20300;-83
2021/10/06 03:20:54;;;;;;;9.07;2.35;;;10.90;99.90;;;11.96;98.38;99941.63;6073596;23;20010;-83
2021/10/06 03:23:21;;;;;;;8.02;1.83;;;10.90;99.90;;;12.13;97.06;99949.41;6072642;23;20014;-81
2021/10/06 03:25:47;;;;;;;10.02;2.28;;;11.00;99.90;;;12.02;97.82;99949.28;6073229;23;20046;-83
2021/10/06 03:28:13;;;;;;;6.30;2.08;;;10.90;99.90;;;12.05;97.46;99944.91;6074003;23;20017;-83
2021/10/06 03:30:40;;;;;;;10.20;2.03;;;11.00;99.90;;;12.10;96.62;99939.75;6073818;23;20093;-83
2021/10/06 03:33:06;;;;;;;6.90;1.85;;;11.00;99.90;;;12.18;96.01;99939.84;6099711;23;20081;-80
2021/10/06 03:35:32;;;;;;;9.00;1.90;;;11.10;99.90;;;12.11;95.66;99940.56;6075488;23;20102;-81
2021/10/06 03:37:58;;;;;;;10.20;2.47;;;11.10;99.90;;;12.06;96.04;99947.34;6077541;23;20057;-83
2021/10/06 03:40:25;;;;;;;7.38;2.15;;;11.00;99.90;;;11.92;96.38;99949.19;6076942;23;20057;-82
2021/10/06 03:42:51;;;;;;;11.18;2.60;;;11.10;99.90;;;11.96;95.87;99952.81;6103383;23;20013;-82
2021/10/06 03:45:18;;;;;;;8.50;2.05;;;11.00;99.90;;;12.01;95.82;99958.06;6075608;23;20082;-81
2021/10/06 03:47:44;;;;;;;8.77;2.20;;;10.90;99.90;;;11.89;96.50;99959.16;6075782;23;20006;-82
2021/10/06 03:50:14;;;;;;;7.97;1.90;;;10.90;99.90;;;11.89;95.99;99963.94;6075685;23;20416;-81
2021/10/06 03:52:41;;;;;;;9.77;2.05;;;10.90;99.90;;;11.89;96.33;99959.16;6076171;23;20093;-83
2021/10/06 03:55:09;;;;;;;9.50;2.00;;;10.90;99.90;;;11.95;96.13;99966.00;6074085;23;20093;-82
2021/10/06 03:57:36;;;;;;;7.40;2.47;;;10.90;99.90;;;11.94;96.14;99967.22;6075458;23;20162;-82
2021/10/06 04:00:08;;;;;;;11.20;2.10;;;11.00;99.90;;;12.01;95.82;99972.06;6102111;23;20010;-85
2021/10/06 04:02:34;;;;;;;10.20;2.50;;;11.00;99.90;;;12.05;95.46;99978.50;6102858;23;20062;-83
2021/10/06 04:05:00;;;;;;;8.13;2.38;;;11.10;99.90;;;12.05;95.05;99970.09;6076393;23;20010;-87
2021/10/06 04:07:28;;;;;;;4.85;1.40;;;11.20;99.90;;;12.20;94.79;99982.25;6077140;23;20010;-86
2021/10/06 04:09:55;;;;;;;8.93;1.42;;;11.10;99.90;;;12.13;94.61;99974.59;6077852;23;20094;-84
2021/10/06 04:12:21;;;;;;;6.00;1.60;;;11.10;99.90;;;12.22;95.01;99989.09;6077075;23;20034;-82
2021/10/06 04:14:47;;;;;;;7.70;1.80;;;11.20;99.90;;;12.17;94.38;99985.84;6102260;23;20281;-87
2021/10/06 04:17:12;;;;;;;11.98;2.30;;;11.20;99.90;;;12.19;94.23;99989.84;6101616;23;20010;-84
2021/10/06 04:19:38;;;;;;;12.70;1.92;;;11.20;99.90;;;12.26;94.21;99989.13;6075340;23;20021;-84
2021/10/06 04:22:04;;;;;;;8.95;1.75;;;11.20;99.90;;;12.32;93.61;99979.97;6077882;23;20130;-86
2021/10/06 04:24:30;;;;;;;7.88;2.17;;;11.30;99.90;;;12.37;93.51;99988.03;6076993;23;20014;-83
2021/10/06 04:26:56;;;;;;;5.07;1.50;;;11.30;99.90;;;12.33;92.75;99986.41;6100205;23;20082;-84
2021/10/06 04:29:22;;;;;;;6.20;2.25;;;11.40;99.90;;;12.29;92.89;99983.56;6099753;23;20341;-84
2021/10/06 04:31:48;;;;;;;5.30;1.30;;;11.30;99.90;;;12.33;93.17;99995.56;6074352;23;20363;-82
2021/10/06 04:34:13;;;;;;;6.30;2.42;;;11.30;99.90;;;12.33;93.19;99997.59;6074360;23;20038;-83
2021/10/06 04:36:41;;;;;;;7.65;2.28;;;11.30;99.90;;;12.33;93.15;100003.19;6100543;23;20003;-85
2021/10/06 04:39:08;;;;;;;10.23;2.45;;;11.30;99.90;;;12.37;92.71;100004.00;6100445;23;20326;-85
2021/10/06 04:41:35;;;;;;;9.48;1.92;;;11.40;99.90;;;12.43;92.63;100010.88;6074729;23;20445;-83
2021/10/06 04:44:04;;;;;;;7.90;1.83;;;11.40;99.90;;;12.42;92.51;100004.50;6098909;23;20010;-83
2021/10/06 04:46:30;;;;;;;4.55;1.50;;;11.40;99.90;;;12.41;92.12;100010.47;6073414;23;20032;-79
2021/10/06 04:48:58;;;;;;;11.02;2.35;;;11.30;99.90;;;12.42;92.33;100004.50;6074763;23;20010;-81
2021/10/06 04:51:24;;;;;;;4.95;1.65;;;11.40;99.90;;;12.52;92.35;100009.34;6055816;23;20132;-80
2021/10/06 04:53:56;;;;;;;8.52;1.73;;;11.40;99.90;;;12.39;92.74;100008.06;6107012;23;20002;-82
2021/10/06 04:56:22;;;;;;;9.60;2.22;;;11.40;99.90;;;12.48;91.52;100011.34;6077832;23;20392;-84
2021/10/06 04:58:48;;;;;;;10.55;2.58;;;11.40;99.90;;;12.36;91.52;100003.19;6077486;23;20053;-83
2021/10/06 05:01:13;;;;;;;4.00;1.73;;;11.40;99.90;;;12.44;91.57;100004.09;6101124;23;20010;-84
2021/10/06 05:03:40;;;;;;;6.75;2.38;;;11.40;99.90;;;12.51;90.48;100004.97;6074956;23;20014;-84
2021/10/06 05:06:06;;;;;;;7.85;2.20;;;11.50;99.90;;;12.51;90.64;100016.16;6075027;23;20010;-84
2021/10/06 05:08:35;;;;;;;5.35;1.85;;;11.50;99.90;;;12.52;89.84;100009.34;6074689;23;20038;-85
2021/10/06 05:11:01;;;;;;;7.75;1.98;;;11.50;99.90;;;12.53;90.42;100018.56;6074871;23;20356;-84
2021/10/06 05:13:27;;;;;;;6.03;1.85;;;11.40;99.90;;;12.44;90.28;100001.28;6100817;23;20002;-82
2021/10/06 05:15:53;;;;;;;5.13;1.67;;;11.50;99.90;;;12.31;90.37;99999.97;6074933;23;20017;-81
2021/10/06 05:18:19;;;;;;;12.50;2.38;;;11.40;99.90;;;12.45;90.36;100011.31;6099150;23;20037;-80
2021/10/06 05:20:45;;;;;;;4.97;1.40;;;11.50;99.90;;;12.46;90.91;100010.09;6072838;23;20025;-83
2021/10/06 05:23:10;;;;;;;12.45;1.98;;;11.40;99.90;;;12.41;90.20;100013.25;6072721;23;20048;-85
2021/10/06 05:25:36;;;;;;;7.65;1.95;;;11.40;99.90;;;12.46;89.98;100015.69;6072918;23;20010;-86
2021/10/06 05:28:03;;;;;;;10.25;1.60;;;11.40;99.90;;;12.55;89.87;100022.59;6072178;23;20085;-85
2021/10/06 05:30:29;;;;;;;6.30;1.92;;;11.50;99.90;;;12.36;89.90;100025.59;6072325;23;20472;-86
2021/10/06 05:32:55;;;;;;;9.82;2.22;;;11.50;99.90;;;12.40;89.89;100020.03;6072345;23;20052;-85
2021/10/06 05:35:22;;;;;;;7.85;1.70;;;11.50;99.90;;;12.25;90.09;100021.91;6072273;23;20010;-83
2021/10/06 05:37:51;;;;;;;9.00;2.05;;;11.50;99.90;;;12.53;88.83;100026.97;6097558;23;20009;-84
2021/10/06 05:40:17;;;;;;;8.90;2.67;;;11.50;99.90;;;12.43;89.15;100031.28;6050449;23;20120;-83
2021/10/06 05:42:43;;;;;;;5.82;2.17;;;11.60;99.90;;;12.56;88.56;100043.00;6073139;23;20371;-85
2021/10/06 05:45:11;;;;;;;5.18;1.40;;;11.50;99.90;;;12.59;88.52;100045.03;6074824;23;20036;-86
2021/10/06 05:47:37;;;;;;;9.95;2.30;;;11.60;99.90;;;12.48;88.14;100044.13;6049452;23;20070;-87
2021/10/06 05:50:06;;;;;;;8.20;1.90;;;11.60;99.90;;;12.56;88.80;100045.81;6101249;23;20081;-83
2021/10/06 05:52:34;;;;;;;7.15;2.13;;;11.50;99.90;;;12.41;88.56;100038.47;6097903;23;20026;-82
2021/10/06 05:55:02;;;;;;;6.30;1.63;;;11.50;99.90;;;12.49;88.54;100037.34;6072497;23;20007;-82
2021/10/06 05:57:28;;;;;;;9.07;2.33;;;11.50;99.90;;;12.56;88.33;100038.22;6071645;23;20065;-84
2021/10/06 05:59:54;;;;;;;7.53;1.83;;;11.60;99.90;;;12.62;88.87;100044.25;6072300;23;20456;-83
2021/10/06 06:02:20;;;;;;;10.95;2.38;;;11.50;99.90;;;12.43;89.35;100044.47;6099888;23;20273;-84
2021/10/06 06:04:47;;;;;;;6.95;1.85;;;11.50;99.90;;;12.43;88.66;100045.28;6101014;23;20006;-85
2021/10/06 06:07:12;;;;;;;5.47;1.55;;;11.50;99.90;;;12.55;87.22;100052.63;6075255;23;20018;-81
2021/10/06 06:09:38;;;;;;;8.05;1.98;;;11.50;99.90;;;12.52;87.00;100051.38;6075185;23;20010;-82
2021/10/06 06:12:09;;;;;;;5.15;1.48;;;11.60;99.90;;;12.73;86.79;100053.56;6074916;23;20042;-82
2021/10/06 06:14:39;;;;;;;5.28;1.45;;;11.50;99.90;;;12.59;87.19;100048.63;6076171;23;20042;-83
2021/10/06 06:17:07;;;;;;;7.45;1.65;;;11.60;99.90;;;12.69;85.57;100061.94;6099152;23;20104;-84
2021/10/06 06:19:33;;;;;;;7.35;1.75;;;11.60;99.90;;;12.62;86.54;100056.28;6101783;23;20451;-83
2021/10/06 06:21:59;;;;;;;10.65;1.80;;;11.60;99.90;;;12.57;86.48;100062.25;6075262;23;20110;-81
2021/10/06 06:24:27;;;;;;;5.97;1.55;;;11.70;99.90;;;12.65;87.06;100068.69;6074752;23;20500;-84
2021/10/06 06:26:54;;;;;;;5.93;1.40;;;11.60;99.90;;;12.67;87.15;100069.13;6101100;23;20344;-83
2021/10/06 06:29:22;;;;;;;2.55;1.20;;;11.70;99.90;;;12.75;86.36;100068.00;6101201;23;20507;-84
2021/10/06 06:31:49;;;;;;;5.50;1.27;;;11.60;99.90;;;12.71;86.87;100067.19;6052563;23;20010;-84
2021/10/06 06:34:17;;;;;;;8.45;1.75;;;11.60;99.90;;;12.64;87.26;100069.91;6104315;23;20026;-83
2021/10/06 06:36:43;;;;;;;6.55;1.70;;;11.60;99.90;;;12.71;86.88;100072.78;6078980;23;20010;-86
2021/10/06 06:39:08;;;;;;;7.90;1.95;;;11.70;99.90;;;12.69;87.41;100064.75;6080410;23;20010;-86
2021/10/06 06:41:34;;;;;;;8.43;1.70;;;11.60;99.90;;;12.59;87.32;100075.84;6105654;23;20007;-86
2021/10/06 06:44:02;;;;;;;6.53;1.83;;;11.70;99.90;;;12.77;87.04;100068.44;6079827;23;20428;-82
2021/10/06 06:46:28;;;;;;;5.15;1.75;;;11.70;99.90;;;12.76;86.64;100074.41;6104406;23;20006;-83
2021/10/06 06:48:54;;;;;;;8.77;1.95;;;11.80;99.90;;;12.87;86.51;100067.72;6078618;23;20010;-84
2021/10/06 06:51:20;;;;;;;5.30;1.55;;;11.80;99.90;;;12.82;86.07;100084.06;6103528;23;20030;-86
2021/10/06 06:53:46;;;;;;;6.20;1.88;;;11.80;99.90;;;12.72;87.59;100082.78;6104138;23;20022;-84
2021/10/06 06:56:12;;;;;;;5.82;1.77;;;11.80;99.90;;;12.68;88.83;100087.56;6104021;23;20013;-81
2021/10/06 06:58:37;;;;;;;8.80;1.88;;;11.70;99.90;;;12.75;88.75;100089.63;6103171;23;20021;-85
2021/10/06 07:01:03;;;;;;;8.35;1.83;;;11.70;99.90;;;12.71;89.90;100091.59;6078119;23;20017;-85
2021/10/06 07:03:29;;;;;;;4.75;1.42;;;11.70;99.90;;;12.63;91.04;100087.91;6076667;23;20017;-85
2021/10/06 07:05:55;;;;;;;9.10;1.85;;;11.70;99.90;;;12.83;90.99;100088.50;6111292;23;19998;-83
2021/10/06 07:08:21;;;;;;;3.05;1.23;;;11.70;99.90;;;12.89;91.23;100092.53;6094617;23;20322;-81
2021/10/06 07:10:47;;;;;;;7.40;1.88;;;11.80;99.90;;;13.02;89.67;100108.69;6121119;23;20006;-81
2021/10/06 07:13:12;;;;;;;8.25;1.85;;;11.90;99.90;;;13.14;89.19;100088.78;6120857;23;20002;-81
2021/10/06 07:15:38;;;;;;;7.10;1.88;;;12.00;99.90;;;13.16;89.93;100099.63;6112452;23;20010;-80
2021/10/06 07:18:04;;;;;;;7.00;1.90;;;12.00;99.90;;;13.08;89.46;100093.16;6100180;23;20021;-82
2021/10/06 07:20:30;;;;;;;4.85;1.70;;;12.00;99.90;;;12.82;92.03;100107.28;6101238;23;20003;-81
2021/10/06 07:22:56;;;;;;;7.07;2.22;;;11.80;99.90;;;12.82;93.20;100112.91;6076016;23;20006;-83
2021/10/06 07:25:23;;;;;;;8.30;2.15;;;11.70;99.90;;;12.72;93.64;100116.41;6101459;23;20085;-81
2021/10/06 07:27:49;;;;;;;6.88;1.73;;;11.70;99.90;;;12.61;95.62;100116.31;6100811;23;20451;-82
2021/10/06 07:30:17;;;;;;;5.30;2.30;;;11.60;99.90;;;12.37;97.11;100132.81;6102159;23;20017;-81
2021/10/06 07:32:43;;;;;;;8.20;1.88;;;11.50;99.90;;;12.24;98.40;100123.06;6076159;23;20436;-82
2021/10/06 07:35:10;;;;;;;4.10;2.10;;;11.30;99.90;;;12.16;99.05;100125.00;6102135;23;20002;-83
2021/10/06 07:37:38;;;;;;;8.35;2.10;;;11.20;99.90;;;12.00;100.00;100135.59;6101484;23;20102;-82
2021/10/06 07:40:07;;;;;;;9.23;2.00;;;11.10;99.90;;;11.98;100.00;100141.56;6074527;23;20018;-82
2021/10/06 07:42:33;;;;;;;10.80;2.33;;;11.00;99.90;;;11.96;100.00;100154.31;6074240;23;20042;-84
2021/10/06 07:44:59;;;;;;;8.85;2.78;;;11.00;99.90;;;11.91;100.00;100149.84;6073858;23;20089;-81
2021/10/06 07:47:25;;;;;;;7.40;2.17;;;10.80;99.90;;;11.80;100.00;100143.31;6074756;23;20024;-83
2021/10/06 07:49:52;;;;;;;8.38;2.67;;;10.80;99.90;;;11.78;100.00;100147.69;6075636;23;20034;-80
2021/10/06 07:52:18;;;;;;;10.35;2.20;;;10.80;99.90;;;11.84;100.00;100162.97;6100297;23;20003;-81
2021/10/06 07:54:44;;;;;;;8.48;2.22;;;10.90;99.90;;;12.01;100.00;100157.59;6076076;23;20093;-83
2021/10/06 07:57:10;;;;;;;8.43;1.80;;;10.90;99.90;;;11.99;99.68;100156.34;6103267;23;20006;-83
2021/10/06 07:59:36;;;;;;;4.55;1.55;;;11.00;99.90;;;12.13;99.95;100159.34;6077860;23;20021;-81
2021/10/06 08:02:03;;;;;;;9.43;1.90;;;11.10;99.90;;;12.05;98.76;100161.25;6078281;23;20013;-83
2021/10/06 08:04:29;;;;;;;8.27;2.13;;;11.10;99.90;;;12.06;100.00;100159.25;6078223;23;20085;-85
2021/10/06 08:06:55;;;;;;;6.45;1.60;;;11.10;99.90;;;12.00;98.27;100166.38;6103497;23;20061;-83
2021/10/06 08:09:24;;;;;;;5.28;1.15;;;11.10;99.90;;;12.03;96.16;100165.63;6102580;23;20011;-82
2021/10/06 08:11:50;;;;;;;5.35;1.75;;;11.10;99.90;;;12.05;95.67;100166.84;6051019;23;20067;-82
2021/10/06 08:14:16;;;;;;;6.03;1.38;;;11.00;99.90;;;11.86;96.42;100161.38;6073624;23;20010;-81
2021/10/06 08:16:42;;;;;;;3.72;1.30;;;11.00;99.90;;;11.91;97.60;100163.84;6090888;23;20029;-83
2021/10/06 08:19:08;;;;;;;6.57;1.33;;;11.00;99.90;;;11.86;96.90;100166.97;6103200;23;20054;-85
2021/10/06 08:21:35;;;;;;;5.47;1.65;;;11.00;99.90;;;11.88;96.06;100170.19;6103190;23;20002;-86
2021/10/06 08:24:01;;;;;;;6.10;1.48;;;11.00;99.90;;;12.06;96.11;100185.25;6052163;23;20073;-81
2021/10/06 08:26:27;;;;;;;3.42;1.23;;;11.10;99.90;;;12.14;97.01;100184.16;6100771;23;20432;-81
2021/10/06 08:28:54;;;;;;;3.75;1.30;;;11.10;99.90;;;12.06;96.20;100179.66;6099738;23;20018;-82
2021/10/06 08:31:21;;;;;;;5.05;1.20;;;11.30;99.90;;;12.35;95.90;100177.22;6073289;23;20030;-87
2021/10/06 08:33:46;;;;;;;9.27;1.42;;;11.30;99.90;;;12.41;95.18;100184.91;6073573;23;20017;-84
2021/10/06 08:36:12;;;;;;;8.25;1.20;;;11.40;99.90;;;12.58;94.89;100194.72;6075910;23;20011;-85
2021/10/06 08:38:39;;;;;;;4.85;1.00;;;11.70;99.90;;;12.67;92.05;100200.81;6075767;23;20010;-84
2021/10/06 08:41:05;;;;;;;6.55;1.20;;;11.80;99.90;;;12.91;92.34;100200.28;6075495;23;20020;-83
2021/10/06 08:43:31;;;;;;;8.18;1.40;;;11.90;99.90;;;12.98;92.82;100196.72;6078853;23;20014;-82
2021/10/06 08:46:01;;;;;;;3.00;1.20;;;12.00;99.90;;;12.82;94.15;100198.97;6079281;23;20021;-83
2021/10/06 08:48:29;;;;;;;8.15;1.70;;;11.90;99.90;;;12.67;96.17;100196.03;6076972;23;20516;-85
2021/10/06 08:50:55;;;;;;;5.75;1.80;;;11.70;99.90;;;12.60;95.39;100197.94;6052596;23;20445;-83
2021/10/06 08:53:22;;;;;;;5.60;1.42;;;11.70;99.90;;;12.57;94.54;100202.31;6075746;23;20017;-83
2021/10/06 08:55:48;;;;;;;6.10;1.50;;;11.60;99.90;;;12.52;95.97;100202.63;6076228;23;20006;-81
2021/10/06 08:58:14;;;;;;;6.45;1.85;;;11.60;99.90;;;12.38;95.12;100191.28;6077836;23;20006;-83
2021/10/06 09:00:58;;;;;;;6.10;1.85;;;11.60;99.90;;;12.63;95.54;100211.16;6103737;23;20011;-82
2021/10/06 09:03:34;;;;;;;8.57;1.75;;;11.60;99.90;;;12.47;94.08;100202.16;6100563;23;20380;-82
2021/10/06 09:06:14;;;;;;;7.75;1.95;;;11.60;99.90;;;12.41;94.92;100204.50;6102580;23;20058;-83
2021/10/06 09:08:46;;;;;;;5.82;1.85;;;11.60;99.90;;;12.68;95.36;100206.03;6052555;23;20076;-84
2021/10/06 09:11:14;;;;;;;5.43;2.88;;;11.70;99.90;;;12.85;92.71;100198.19;6103083;23;20007;-81
2021/10/06 09:13:45;;;;;;;5.15;1.70;;;11.90;99.90;;;12.84;92.30;100208.63;6053307;23;20014;-82
2021/10/06 09:16:15;;;;;;;7.90;1.90;;;12.00;99.90;;;13.07;91.77;100202.81;6100415;23;20077;-82
2021/10/06 09:18:41;;;;;;;6.00;1.92;;;12.10;99.90;;;13.30;89.45;100205.47;6075391;23;20017;-86
2021/10/06 09:21:09;;;;;;;4.70;1.70;;;12.30;99.90;;;12.99;90.45;100224.41;6075828;23;20092;-86
2021/10/06 09:23:42;;;;;;;2.88;1.40;;;12.20;99.90;;;12.93;91.42;100213.91;6074973;23;20019;-83
2021/10/06 09:26:14;;;;;;;6.13;1.90;;;12.10;99.90;;;12.93;91.66;100211.91;6100609;23;20081;-86
2021/10/06 09:28:46;;;;;;;3.28;1.50;;;12.00;99.90;;;12.75;91.55;100213.69;6102409;23;20006;-83
2021/10/06 09:31:25;;;;;;;5.40;1.50;;;12.00;99.90;;;12.83;92.61;100221.03;6051596;23;20065;-81
2021/10/06 09:33:59;;;;;;;5.97;2.03;;;11.90;99.90;;;12.67;93.75;100217.63;6051629;23;20011;-83
2021/10/06 09:36:31;;;;;;;4.45;1.70;;;11.80;99.90;;;12.49;95.54;100227.81;6074984;23;20395;-80
2021/10/06 09:39:08;;;;;;;9.00;2.33;;;11.70;99.90;;;12.55;95.47;100240.31;6099083;23;20478;-80
2021/10/06 09:41:47;;;;;;;5.03;1.88;;;11.70;99.90;;;12.59;95.53;100236.34;6075359;23;20006;-85
2021/10/06 09:44:21;;;;;;;3.88;1.65;;;11.70;99.90;;;12.57;95.79;100240.72;6076011;23;20018;-84
2021/10/06 09:47:01;;;;;;;5.72;1.88;;;11.60;99.90;;;12.57;95.55;100235.13;6075623;23;20105;-85
2021/10/06 09:49:38;;;;;;;4.45;1.67;;;11.60;99.90;;;12.59;96.21;100243.94;6050833;23;20025;-81
2021/10/06 09:52:24;;;;;;;7.63;1.98;;;11.60;99.90;;;12.44;97.87;100240.16;6097495;23;20003;-84
2021/10/06 09:55:05;;;;;;;5.75;2.00;;;11.60;99.90;;;12.65;95.29;100242.41;6074863;23;20006;-84
2021/10/06 09:57:38;;;;;;;5.22;1.90;;;11.60;99.90;;;12.57;95.56;100246.31;6101424;23;20087;-82
2021/10/06 10:00:17;;;;;;;6.47;1.60;;;11.60;99.90;;;12.45;96.96;100243.78;6096141;23;20348;-87
2021/10/06 10:02:45;;;;;;;4.32;1.85;;;11.70;99.90;;;12.62;96.92;100251.56;6097173;23;20007;-85
2021/10/06 10:05:14;;;;;;;5.80;2.40;;;11.70;99.90;;;12.86;95.37;100241.84;6047430;23;20018;-84
2021/10/06 10:07:40;;;;;;;5.22;1.88;;;11.80;99.90;;;12.74;96.01;100259.75;6070829;23;20097;-81
2021/10/06 10:10:10;;;;;;;8.02;2.30;;;11.80;99.90;;;12.74;98.05;100256.94;6096997;23;20006;-83
2021/10/06 10:12:36;;;;;;;4.20;1.70;;;11.80;99.90;;;12.77;97.00;100258.97;6071708;23;20014;-85
2021/10/06 10:15:04;;;;;;;5.78;1.80;;;11.90;99.90;;;12.79;96.83;100256.59;6072964;23;20010;-84